Flugplatz Dierdorf-Wienau

Für EDRW sind keine METAR/TAF Berichte vorhanden.
Es werden die Flugwettermeldungen vom Flugplatz Siegerland in 34 km Entfernung angezeigt.

Bericht für EDGS

vom 28.10. um 08:50 UTC

Wind 10 kt aus 230°

Sichtweite 6000 m

schwacher Regen

schwacher Sprühregen

aufgelockert bewölkt in 400 ft

aufgebrochene Bewölkung in 600 ft

Temperatur 9.0°C

Taupunkt 8.0°C

Luftfeuchtigkeit 93%

Luftdruck 1009 hPa

EDGS 280850Z 23010KT 6000 -RADZ SCT004 BKN006 09/08 Q1009

Prognose für EDGS

vom 28.10. um 08:00 UTC

Zwischen 09:00 UTC und 18:00 UTC

Wind 12 kt aus 220°

Sichtweite 10 km oder mehr

aufgebrochene Bewölkung in 1000 ft


Zwischen 09:00 und 11:00 UTC übergehend zu

Wind 12 kt aus 220°

Sichtweite 10 km oder mehr

aufgelockert bewölkt in 1500 ft


Zwischen 13:00 UTC und 15:00 UTC zeitweise

Wind 15 kt aus 220° in Böen 25 kt

TAF EDGS 280800Z 2809/2818 22012KT 9999 BKN010 BECMG 2809/2811 SCT015 TEMPO 2813/2815 22015G25KT
Impressum